Big Elk, Kansas
Current Conditions -  °F | °C
As of 8:53 AM on Saturday 22 Nov 2014 (Local Time) from KJLN Reporting Station
Overcast Overcast  
Wind Chill: 57°   Ceiling: 2000
Heat Index: 57°   Visibility: 10mi
Dew Point: 50°   Wind: 15mph
Humidity: 77%   Direction: 200°SSW
Pressure: 30.05"   Gusts: 23mph
Location:  37.0595°N, 94.7764°W
Report Text: KJLN 221453Z 20013G20KT 10SM BKN020 OVC033 14/10 A3005 RMK AO2 SLP175 T01390100 53004
Loading
Personal Weather Stations






























Interactive Weather Map New forecast layout! Learn more

10-Day Weather Forecast

Advertisements
Track Severe Weather on mobile